createdAt,value
2022-11-13T00:01:44.710Z,82.14
2022-11-13T00:07:05.350Z,82.12
2022-11-13T00:12:28.921Z,82.07
2022-11-13T00:17:49.453Z,81.92
2022-11-13T00:23:09.859Z,81.91
2022-11-13T00:28:30.465Z,81.90
2022-11-13T00:39:34.258Z,81.66
2022-11-13T00:44:54.807Z,81.68
2022-11-13T00:50:15.351Z,81.67
2022-11-13T00:55:35.488Z,81.63
2022-11-13T01:00:55.962Z,81.78
2022-11-13T01:06:18.474Z,81.96
2022-11-13T01:11:38.971Z,81.62
2022-11-13T01:16:59.240Z,81.57
2022-11-13T01:22:19.739Z,81.22
2022-11-13T01:27:40.274Z,81.44
2022-11-13T01:33:00.709Z,81.43
2022-11-13T01:38:21.358Z,81.39
2022-11-13T01:43:42.048Z,81.46
2022-11-13T01:49:11.843Z,81.53
2022-11-13T01:54:33.593Z,81.55
2022-11-13T01:59:56.753Z,81.56
2022-11-13T02:05:17.467Z,81.57
2022-11-13T02:10:38.064Z,81.53
2022-11-13T02:15:58.467Z,81.57
2022-11-13T02:21:18.584Z,81.64
2022-11-13T02:26:39.978Z,81.64
2022-11-13T02:32:00.303Z,81.74
2022-11-13T02:37:20.993Z,81.75
2022-11-13T02:42:41.629Z,81.83
2022-11-13T02:48:01.949Z,81.83
2022-11-13T02:53:22.067Z,81.77
2022-11-13T02:58:42.590Z,81.81
2022-11-13T03:04:02.866Z,81.71
2022-11-13T03:09:23.456Z,81.85
2022-11-13T03:14:43.990Z,82.11
2022-11-13T03:20:05.007Z,82.07
2022-11-13T03:25:25.485Z,81.78
2022-11-13T03:30:47.300Z,81.55
2022-11-13T03:36:07.730Z,81.45
2022-11-13T03:41:28.346Z,81.50
2022-11-13T03:46:48.650Z,81.59
2022-11-13T03:52:09.197Z,81.70
2022-11-13T03:57:29.442Z,81.69
2022-11-13T04:02:50.000Z,81.58
2022-11-13T04:08:10.476Z,81.36
2022-11-13T04:13:30.804Z,81.26
2022-11-13T04:18:51.519Z,81.23
2022-11-13T04:24:12.103Z,81.29
2022-11-13T04:29:32.564Z,81.28
2022-11-13T04:34:53.224Z,81.32
2022-11-13T04:40:13.565Z,81.52
2022-11-13T04:45:33.934Z,81.66
2022-11-13T04:50:54.378Z,81.68
2022-11-13T04:56:14.763Z,81.74
2022-11-13T05:01:36.291Z,81.72
2022-11-13T05:06:56.997Z,81.67
2022-11-13T05:12:17.300Z,81.76
2022-11-13T05:17:37.711Z,81.70
2022-11-13T05:22:58.129Z,81.73
2022-11-13T05:28:18.920Z,81.64
2022-11-13T05:33:39.950Z,81.68
2022-11-13T05:39:00.525Z,81.78
2022-11-13T05:44:21.033Z,81.95
2022-11-13T05:49:41.177Z,82.16
2022-11-13T05:55:01.697Z,82.21
2022-11-13T06:00:22.251Z,82.29
2022-11-13T06:05:42.847Z,82.32
2022-11-13T06:11:05.127Z,82.16
2022-11-13T06:16:26.953Z,82.33
2022-11-13T06:21:47.571Z,82.16
2022-11-13T06:27:08.073Z,82.18
2022-11-13T06:32:28.474Z,82.17
2022-11-13T06:37:48.705Z,82.21
2022-11-13T06:43:09.305Z,81.48
2022-11-13T06:48:29.840Z,81.39
2022-11-13T06:53:51.169Z,81.40
2022-11-13T06:59:11.734Z,81.43
2022-11-13T07:04:32.161Z,81.46
2022-11-13T07:09:52.490Z,81.38
2022-11-13T07:15:12.891Z,81.27
2022-11-13T07:20:33.692Z,80.98
2022-11-13T07:25:55.418Z,80.74
2022-11-13T07:31:17.095Z,80.53
2022-11-13T07:36:37.597Z,80.40
2022-11-13T07:41:57.804Z,80.21
2022-11-13T07:47:18.203Z,79.69
2022-11-13T07:52:38.920Z,79.58
2022-11-13T07:57:59.866Z,79.71
2022-11-13T08:03:20.323Z,79.46
2022-11-13T08:08:40.599Z,79.46
2022-11-13T08:14:01.451Z,79.26
2022-11-13T08:19:21.549Z,78.77
2022-11-13T08:24:42.035Z,78.94
2022-11-13T08:30:02.636Z,77.96
2022-11-13T08:35:29.002Z,77.52
2022-11-13T08:40:49.895Z,78.06
2022-11-13T08:46:10.640Z,78.21
2022-11-13T08:51:31.098Z,77.42
2022-11-13T08:56:56.564Z,77.09
2022-11-13T09:02:18.462Z,77.08
2022-11-13T09:07:39.082Z,77.33
2022-11-13T09:13:01.973Z,77.34
2022-11-13T09:18:22.411Z,76.22
2022-11-13T09:23:42.939Z,76.16
2022-11-13T09:29:03.828Z,74.93
2022-11-13T09:34:25.522Z,73.89
2022-11-13T09:39:45.995Z,75.91
2022-11-13T09:45:08.180Z,75.19
2022-11-13T09:50:31.344Z,74.85
2022-11-13T09:55:58.134Z,75.71
2022-11-13T10:01:23.920Z,74.89
2022-11-13T10:06:49.664Z,74.20
2022-11-13T10:12:14.073Z,73.72
2022-11-13T10:17:39.925Z,73.26
2022-11-13T10:23:00.607Z,72.45
2022-11-13T10:28:49.650Z,73.06
2022-11-13T10:34:06.832Z,74.32
2022-11-13T10:39:27.543Z,73.63
2022-11-13T10:44:56.143Z,72.08
2022-11-13T10:50:24.909Z,73.06
2022-11-13T10:55:45.503Z,72.24
2022-11-13T11:01:16.393Z,71.92
2022-11-13T11:12:27.164Z,71.01
2022-11-13T11:17:54.125Z,70.77
2022-11-13T11:23:33.362Z,72.03
2022-11-13T11:29:03.366Z,72.59
2022-11-13T11:34:33.941Z,72.18
2022-11-13T11:39:58.355Z,71.89
2022-11-13T11:45:24.673Z,70.82
2022-11-13T11:50:46.541Z,70.38
2022-11-13T11:56:12.837Z,71.07
2022-11-13T12:01:53.365Z,72.22
2022-11-13T12:07:22.670Z,72.06
2022-11-13T12:12:45.804Z,70.55
2022-11-13T12:18:18.323Z,68.72
2022-11-13T12:23:53.686Z,68.33
2022-11-13T12:29:17.251Z,70.40
2022-11-13T12:34:41.162Z,69.57
2022-11-13T12:40:06.664Z,69.03
2022-11-13T12:45:39.113Z,67.80
2022-11-13T12:51:00.629Z,68.01
2022-11-13T12:56:24.281Z,67.85
2022-11-13T13:01:47.693Z,67.23
2022-11-13T13:07:11.203Z,66.99
2022-11-13T13:12:31.931Z,66.95
2022-11-13T13:18:12.804Z,66.43
2022-11-13T13:23:33.079Z,66.37
2022-11-13T13:28:54.696Z,66.52
2022-11-13T13:34:34.671Z,66.61
2022-11-13T13:40:02.892Z,66.84
2022-11-13T13:45:27.594Z,68.46
2022-11-13T13:50:49.660Z,68.99
2022-11-13T13:56:11.783Z,68.56
2022-11-13T14:01:33.540Z,69.55
2022-11-13T14:06:58.165Z,70.53
2022-11-13T14:12:20.192Z,71.13
2022-11-13T14:17:40.705Z,71.72
2022-11-13T14:23:01.613Z,72.86
2022-11-13T14:28:23.995Z,73.53
2022-11-13T14:33:45.742Z,74.00
2022-11-13T14:39:06.487Z,74.82
2022-11-13T14:44:31.912Z,75.74
2022-11-13T14:49:53.378Z,76.17
2022-11-13T14:55:21.137Z,76.87
2022-11-13T15:00:41.350Z,76.93
2022-11-13T15:06:01.919Z,77.18
2022-11-13T15:11:23.648Z,77.02
2022-11-13T15:16:44.763Z,77.07
2022-11-13T15:27:49.920Z,77.85
2022-11-13T15:33:13.077Z,77.57
2022-11-13T15:38:33.614Z,77.44
2022-11-13T15:43:55.521Z,77.92
2022-11-13T15:49:15.992Z,78.26
2022-11-13T15:54:38.021Z,78.34
2022-11-13T15:59:58.791Z,78.47
2022-11-13T16:05:19.439Z,79.50
2022-11-13T16:10:39.832Z,79.95
2022-11-13T16:16:01.116Z,80.15
2022-11-13T16:21:22.099Z,80.79
2022-11-13T16:26:46.140Z,81.10
2022-11-13T16:32:12.474Z,81.71
2022-11-13T16:37:32.904Z,81.71
2022-11-13T16:42:54.017Z,81.91
2022-11-13T16:48:15.736Z,81.82
2022-11-13T16:53:35.915Z,81.96
2022-11-13T16:58:56.885Z,81.78
2022-11-13T17:04:17.168Z,81.72
2022-11-13T17:09:39.310Z,81.55
2022-11-13T17:14:59.976Z,81.37
2022-11-13T17:20:20.190Z,81.27
2022-11-13T17:25:40.316Z,81.25
2022-11-13T17:31:08.917Z,81.34
2022-11-13T17:36:29.369Z,81.38
2022-11-13T17:41:50.691Z,81.63
2022-11-13T17:47:11.092Z,81.93
2022-11-13T17:52:31.599Z,81.85
2022-11-13T17:57:52.037Z,82.11
2022-11-13T18:03:12.369Z,82.20
2022-11-13T18:08:33.410Z,82.36
2022-11-13T18:13:53.891Z,82.30
2022-11-13T18:19:14.298Z,82.44
2022-11-13T18:24:34.677Z,82.47
2022-11-13T18:29:55.461Z,82.50
2022-11-13T18:35:15.866Z,82.39
2022-11-13T18:40:36.896Z,82.57
2022-11-13T18:45:57.873Z,82.73
2022-11-13T18:51:20.441Z,82.95
2022-11-13T18:56:41.259Z,82.91
2022-11-13T19:02:01.964Z,82.81
2022-11-13T19:07:22.537Z,82.94
2022-11-13T19:12:43.052Z,83.02
2022-11-13T19:18:03.950Z,83.06
2022-11-13T19:23:24.067Z,82.90
2022-11-13T19:28:51.407Z,82.76
2022-11-13T19:34:12.418Z,82.82
2022-11-13T19:39:32.975Z,82.80
2022-11-13T19:44:53.306Z,82.68
2022-11-13T19:50:13.679Z,82.54
2022-11-13T19:55:34.915Z,82.52
2022-11-13T20:00:56.109Z,82.55
2022-11-13T20:06:17.402Z,82.64
2022-11-13T20:11:37.542Z,82.51
2022-11-13T20:16:57.950Z,82.51
2022-11-13T20:22:18.267Z,82.49
2022-11-13T20:27:41.829Z,82.45
2022-11-13T20:33:04.967Z,82.42
2022-11-13T20:38:25.401Z,82.41
2022-11-13T20:43:47.497Z,82.39
2022-11-13T20:49:07.993Z,82.29
2022-11-13T20:54:28.584Z,82.24
2022-11-13T20:59:48.876Z,82.28
2022-11-13T21:05:09.445Z,82.04
2022-11-13T21:10:29.925Z,82.01
2022-11-13T21:15:50.334Z,82.22
2022-11-13T21:21:12.135Z,82.29
2022-11-13T21:26:32.897Z,82.28
2022-11-13T21:31:53.453Z,82.28
2022-11-13T21:37:14.694Z,82.41
2022-11-13T21:42:34.992Z,82.45
2022-11-13T21:47:55.588Z,82.61
2022-11-13T21:53:16.110Z,82.73
2022-11-13T21:58:37.476Z,83.19
2022-11-13T22:03:57.912Z,83.20
2022-11-13T22:09:25.524Z,83.41
2022-11-13T22:14:53.330Z,83.32
2022-11-13T22:20:14.271Z,83.79
2022-11-13T22:25:34.743Z,83.63
2022-11-13T22:30:55.740Z,83.63
2022-11-13T22:36:17.535Z,83.55
2022-11-13T22:41:38.082Z,83.31
2022-11-13T22:46:58.546Z,83.21
2022-11-13T22:52:18.984Z,83.26
2022-11-13T22:57:39.384Z,83.03
2022-11-13T23:03:00.770Z,82.95
2022-11-13T23:08:21.352Z,82.96
2022-11-13T23:13:45.837Z,83.20
2022-11-13T23:19:06.246Z,83.21
2022-11-13T23:24:26.585Z,83.28
2022-11-13T23:29:50.068Z,83.49
2022-11-13T23:35:10.890Z,83.42
2022-11-13T23:40:31.592Z,83.41
2022-11-13T23:45:52.419Z,83.39
2022-11-13T23:51:12.886Z,83.31
2022-11-13T23:56:33.209Z,83.22
